sensor_id;sensor_type;location;lat;lon;timestamp;P1;durP1;ratioP1;P2;durP2;ratioP2
43990;SDS011;29654;50.784;20.604;2023-11-22T00:00:58;9.82;;;8.45;;
43990;SDS011;29654;50.784;20.604;2023-11-22T00:06:01;10.65;;;8.23;;
43990;SDS011;29654;50.784;20.604;2023-11-22T00:11:05;9.27;;;7.78;;
43990;SDS011;29654;50.784;20.604;2023-11-22T00:16:10;9.63;;;8.23;;
43990;SDS011;29654;50.784;20.604;2023-11-22T00:21:14;9.52;;;7.72;;
43990;SDS011;29654;50.784;20.604;2023-11-22T00:26:18;11.63;;;7.93;;
43990;SDS011;29654;50.784;20.604;2023-11-22T00:31:31;9.85;;;8.23;;
43990;SDS011;29654;50.784;20.604;2023-11-22T00:36:36;14.82;;;9.02;;
43990;SDS011;29654;50.784;20.604;2023-11-22T00:41:41;10.30;;;8.25;;
43990;SDS011;29654;50.784;20.604;2023-11-22T00:46:45;13.40;;;9.45;;
43990;SDS011;29654;50.784;20.604;2023-11-22T00:51:50;10.27;;;8.45;;
43990;SDS011;29654;50.784;20.604;2023-11-22T00:56:53;11.45;;;9.30;;
43990;SDS011;29654;50.784;20.604;2023-11-22T01:01:59;10.02;;;8.77;;
43990;SDS011;29654;50.784;20.604;2023-11-22T01:07:03;10.45;;;8.75;;
43990;SDS011;29654;50.784;20.604;2023-11-22T01:12:09;13.60;;;9.00;;
43990;SDS011;29654;50.784;20.604;2023-11-22T01:17:16;9.95;;;8.05;;
43990;SDS011;29654;50.784;20.604;2023-11-22T01:22:19;10.63;;;8.90;;
43990;SDS011;29654;50.784;20.604;2023-11-22T01:27:23;9.80;;;8.07;;
43990;SDS011;29654;50.784;20.604;2023-11-22T01:32:30;10.15;;;8.07;;
43990;SDS011;29654;50.784;20.604;2023-11-22T01:37:33;9.48;;;6.95;;
43990;SDS011;29654;50.784;20.604;2023-11-22T01:42:38;9.77;;;7.57;;
43990;SDS011;29654;50.784;20.604;2023-11-22T01:47:45;11.32;;;7.85;;
43990;SDS011;29654;50.784;20.604;2023-11-22T01:52:49;8.65;;;6.88;;
43990;SDS011;29654;50.784;20.604;2023-11-22T01:57:54;10.57;;;8.02;;
43990;SDS011;29654;50.784;20.604;2023-11-22T02:03:01;12.30;;;8.18;;
43990;SDS011;29654;50.784;20.604;2023-11-22T02:08:06;11.45;;;8.13;;
43990;SDS011;29654;50.784;20.604;2023-11-22T02:13:11;9.50;;;7.47;;
43990;SDS011;29654;50.784;20.604;2023-11-22T02:18:17;9.43;;;7.30;;
43990;SDS011;29654;50.784;20.604;2023-11-22T02:23:22;11.20;;;7.18;;
43990;SDS011;29654;50.784;20.604;2023-11-22T02:28:26;11.25;;;7.60;;
43990;SDS011;29654;50.784;20.604;2023-11-22T02:33:31;11.65;;;7.05;;
43990;SDS011;29654;50.784;20.604;2023-11-22T02:38:35;10.70;;;7.63;;
43990;SDS011;29654;50.784;20.604;2023-11-22T02:43:38;9.20;;;7.22;;
43990;SDS011;29654;50.784;20.604;2023-11-22T02:48:43;9.55;;;7.22;;
43990;SDS011;29654;50.784;20.604;2023-11-22T02:53:47;9.55;;;6.90;;
43990;SDS011;29654;50.784;20.604;2023-11-22T02:58:51;10.07;;;7.03;;
43990;SDS011;29654;50.784;20.604;2023-11-22T03:03:53;8.25;;;6.35;;
43990;SDS011;29654;50.784;20.604;2023-11-22T03:08:57;7.78;;;6.25;;
43990;SDS011;29654;50.784;20.604;2023-11-22T03:14:00;7.70;;;6.90;;
43990;SDS011;29654;50.784;20.604;2023-11-22T03:19:04;7.95;;;6.35;;
43990;SDS011;29654;50.784;20.604;2023-11-22T03:24:08;7.78;;;6.15;;
43990;SDS011;29654;50.784;20.604;2023-11-22T03:29:11;6.13;;;5.25;;
43990;SDS011;29654;50.784;20.604;2023-11-22T03:34:16;8.05;;;5.80;;
43990;SDS011;29654;50.784;20.604;2023-11-22T03:39:21;7.70;;;6.75;;
43990;SDS011;29654;50.784;20.604;2023-11-22T03:44:25;7.45;;;6.28;;
43990;SDS011;29654;50.784;20.604;2023-11-22T03:49:27;6.55;;;5.75;;
43990;SDS011;29654;50.784;20.604;2023-11-22T03:54:31;8.15;;;5.78;;
43990;SDS011;29654;50.784;20.604;2023-11-22T03:59:34;7.75;;;6.35;;
43990;SDS011;29654;50.784;20.604;2023-11-22T04:04:37;8.90;;;6.55;;
43990;SDS011;29654;50.784;20.604;2023-11-22T04:09:42;8.82;;;7.00;;
43990;SDS011;29654;50.784;20.604;2023-11-22T04:14:45;8.43;;;6.68;;
43990;SDS011;29654;50.784;20.604;2023-11-22T04:19:47;7.82;;;6.45;;
43990;SDS011;29654;50.784;20.604;2023-11-22T04:24:58;13.15;;;7.63;;
43990;SDS011;29654;50.784;20.604;2023-11-22T04:30:01;9.38;;;7.13;;
43990;SDS011;29654;50.784;20.604;2023-11-22T04:35:04;10.18;;;6.78;;
43990;SDS011;29654;50.784;20.604;2023-11-22T04:40:10;10.15;;;7.00;;
43990;SDS011;29654;50.784;20.604;2023-11-22T04:45:14;11.02;;;7.15;;
43990;SDS011;29654;50.784;20.604;2023-11-22T04:50:17;8.52;;;6.78;;
43990;SDS011;29654;50.784;20.604;2023-11-22T04:55:21;7.97;;;6.65;;
43990;SDS011;29654;50.784;20.604;2023-11-22T05:00:24;9.70;;;7.13;;
43990;SDS011;29654;50.784;20.604;2023-11-22T05:05:26;8.80;;;6.35;;
43990;SDS011;29654;50.784;20.604;2023-11-22T05:10:30;9.57;;;6.65;;
43990;SDS011;29654;50.784;20.604;2023-11-22T05:15:34;7.90;;;6.53;;
43990;SDS011;29654;50.784;20.604;2023-11-22T05:20:37;8.25;;;7.20;;
43990;SDS011;29654;50.784;20.604;2023-11-22T05:25:41;9.93;;;7.82;;
43990;SDS011;29654;50.784;20.604;2023-11-22T05:30:44;11.70;;;7.97;;
43990;SDS011;29654;50.784;20.604;2023-11-22T05:35:46;10.15;;;8.23;;
43990;SDS011;29654;50.784;20.604;2023-11-22T05:40:51;11.25;;;8.10;;
43990;SDS011;29654;50.784;20.604;2023-11-22T05:45:53;17.92;;;9.98;;
43990;SDS011;29654;50.784;20.604;2023-11-22T05:50:56;13.07;;;9.10;;
43990;SDS011;29654;50.784;20.604;2023-11-22T05:56:00;11.88;;;9.00;;
43990;SDS011;29654;50.784;20.604;2023-11-22T06:01:03;11.30;;;8.70;;
43990;SDS011;29654;50.784;20.604;2023-11-22T06:06:06;11.40;;;8.77;;
43990;SDS011;29654;50.784;20.604;2023-11-22T06:11:10;11.43;;;8.95;;
43990;SDS011;29654;50.784;20.604;2023-11-22T06:16:14;11.70;;;8.55;;
43990;SDS011;29654;50.784;20.604;2023-11-22T06:21:17;13.57;;;9.18;;
43990;SDS011;29654;50.784;20.604;2023-11-22T06:26:21;11.88;;;8.73;;
43990;SDS011;29654;50.784;20.604;2023-11-22T06:31:23;12.60;;;8.32;;
43990;SDS011;29654;50.784;20.604;2023-11-22T06:36:26;12.50;;;10.10;;
43990;SDS011;29654;50.784;20.604;2023-11-22T06:41:31;12.98;;;8.80;;
43990;SDS011;29654;50.784;20.604;2023-11-22T06:46:33;11.77;;;8.52;;
43990;SDS011;29654;50.784;20.604;2023-11-22T06:51:36;10.57;;;7.43;;
43990;SDS011;29654;50.784;20.604;2023-11-22T06:56:40;11.68;;;9.18;;
43990;SDS011;29654;50.784;20.604;2023-11-22T07:01:43;13.25;;;9.13;;
43990;SDS011;29654;50.784;20.604;2023-11-22T07:06:45;12.95;;;9.15;;
43990;SDS011;29654;50.784;20.604;2023-11-22T07:11:49;12.40;;;8.50;;
43990;SDS011;29654;50.784;20.604;2023-11-22T07:16:52;14.25;;;9.55;;
43990;SDS011;29654;50.784;20.604;2023-11-22T07:21:55;11.43;;;8.68;;
43990;SDS011;29654;50.784;20.604;2023-11-22T07:26:59;11.98;;;8.75;;
43990;SDS011;29654;50.784;20.604;2023-11-22T07:32:03;15.05;;;10.13;;
43990;SDS011;29654;50.784;20.604;2023-11-22T07:37:06;11.63;;;8.73;;
43990;SDS011;29654;50.784;20.604;2023-11-22T07:42:10;12.00;;;8.40;;
43990;SDS011;29654;50.784;20.604;2023-11-22T07:47:13;12.77;;;9.35;;
43990;SDS011;29654;50.784;20.604;2023-11-22T07:52:16;11.15;;;8.68;;
43990;SDS011;29654;50.784;20.604;2023-11-22T07:57:20;13.18;;;8.30;;
43990;SDS011;29654;50.784;20.604;2023-11-22T08:02:23;11.68;;;9.07;;
43990;SDS011;29654;50.784;20.604;2023-11-22T08:07:25;15.52;;;10.77;;
43990;SDS011;29654;50.784;20.604;2023-11-22T08:12:29;13.05;;;9.32;;
43990;SDS011;29654;50.784;20.604;2023-11-22T08:17:33;13.25;;;9.85;;
43990;SDS011;29654;50.784;20.604;2023-11-22T08:22:36;14.35;;;9.50;;
43990;SDS011;29654;50.784;20.604;2023-11-22T08:27:40;11.88;;;8.27;;
43990;SDS011;29654;50.784;20.604;2023-11-22T08:32:43;11.73;;;8.80;;
43990;SDS011;29654;50.784;20.604;2023-11-22T08:37:51;14.93;;;9.80;;
43990;SDS011;29654;50.784;20.604;2023-11-22T08:42:55;15.80;;;11.25;;
43990;SDS011;29654;50.784;20.604;2023-11-22T08:47:58;14.27;;;10.38;;
43990;SDS011;29654;50.784;20.604;2023-11-22T08:53:00;16.40;;;11.10;;
43990;SDS011;29654;50.784;20.604;2023-11-22T08:58:06;12.80;;;10.30;;
43990;SDS011;29654;50.784;20.604;2023-11-22T09:03:09;14.60;;;9.35;;
43990;SDS011;29654;50.784;20.604;2023-11-22T09:08:13;13.38;;;9.43;;
43990;SDS011;29654;50.784;20.604;2023-11-22T09:13:17;12.43;;;9.93;;
43990;SDS011;29654;50.784;20.604;2023-11-22T09:18:21;9.85;;;8.07;;
43990;SDS011;29654;50.784;20.604;2023-11-22T09:23:23;10.63;;;8.48;;
43990;SDS011;29654;50.784;20.604;2023-11-22T09:28:28;13.65;;;9.27;;
43990;SDS011;29654;50.784;20.604;2023-11-22T09:33:32;12.63;;;8.70;;
43990;SDS011;29654;50.784;20.604;2023-11-22T09:38:34;12.63;;;9.38;;
43990;SDS011;29654;50.784;20.604;2023-11-22T09:43:39;14.63;;;9.52;;
43990;SDS011;29654;50.784;20.604;2023-11-22T09:48:42;13.50;;;9.40;;
43990;SDS011;29654;50.784;20.604;2023-11-22T09:53:51;14.60;;;8.70;;
43990;SDS011;29654;50.784;20.604;2023-11-22T09:58:58;10.95;;;8.43;;
43990;SDS011;29654;50.784;20.604;2023-11-22T10:04:02;10.80;;;8.40;;
43990;SDS011;29654;50.784;20.604;2023-11-22T10:09:06;10.68;;;8.40;;
43990;SDS011;29654;50.784;20.604;2023-11-22T10:14:11;8.43;;;7.47;;
43990;SDS011;29654;50.784;20.604;2023-11-22T10:19:25;13.13;;;7.57;;
43990;SDS011;29654;50.784;20.604;2023-11-22T10:24:30;10.73;;;8.00;;
43990;SDS011;29654;50.784;20.604;2023-11-22T10:29:35;11.52;;;9.07;;
43990;SDS011;29654;50.784;20.604;2023-11-22T10:34:37;7.85;;;6.85;;
43990;SDS011;29654;50.784;20.604;2023-11-22T10:39:40;10.73;;;9.50;;
43990;SDS011;29654;50.784;20.604;2023-11-22T10:44:44;9.75;;;7.85;;
43990;SDS011;29654;50.784;20.604;2023-11-22T10:49:49;9.38;;;7.68;;
43990;SDS011;29654;50.784;20.604;2023-11-22T10:54:55;9.82;;;7.50;;
43990;SDS011;29654;50.784;20.604;2023-11-22T11:00:05;10.27;;;8.38;;
43990;SDS011;29654;50.784;20.604;2023-11-22T11:05:15;12.13;;;8.50;;
43990;SDS011;29654;50.784;20.604;2023-11-22T11:10:20;10.77;;;7.25;;
43990;SDS011;29654;50.784;20.604;2023-11-22T11:15:25;7.35;;;6.40;;
43990;SDS011;29654;50.784;20.604;2023-11-22T11:20:32;7.80;;;6.47;;
43990;SDS011;29654;50.784;20.604;2023-11-22T11:25:34;6.13;;;5.53;;
43990;SDS011;29654;50.784;20.604;2023-11-22T11:30:46;11.48;;;8.07;;
43990;SDS011;29654;50.784;20.604;2023-11-22T11:35:50;10.18;;;8.20;;
43990;SDS011;29654;50.784;20.604;2023-11-22T11:40:52;8.60;;;5.68;;
43990;SDS011;29654;50.784;20.604;2023-11-22T11:45:57;6.32;;;5.38;;
43990;SDS011;29654;50.784;20.604;2023-11-22T11:51:02;7.75;;;5.82;;
43990;SDS011;29654;50.784;20.604;2023-11-22T11:56:07;6.20;;;4.75;;
43990;SDS011;29654;50.784;20.604;2023-11-22T12:01:12;7.95;;;5.50;;
43990;SDS011;29654;50.784;20.604;2023-11-22T12:06:17;6.90;;;5.78;;
43990;SDS011;29654;50.784;20.604;2023-11-22T12:11:20;8.57;;;6.65;;
43990;SDS011;29654;50.784;20.604;2023-11-22T12:16:24;7.13;;;5.53;;
43990;SDS011;29654;50.784;20.604;2023-11-22T12:21:27;5.55;;;4.32;;
43990;SDS011;29654;50.784;20.604;2023-11-22T12:26:33;6.78;;;5.43;;
43990;SDS011;29654;50.784;20.604;2023-11-22T12:31:43;7.72;;;5.85;;
43990;SDS011;29654;50.784;20.604;2023-11-22T12:36:46;7.25;;;5.22;;
43990;SDS011;29654;50.784;20.604;2023-11-22T12:41:50;4.40;;;4.00;;
43990;SDS011;29654;50.784;20.604;2023-11-22T12:46:56;8.15;;;5.30;;
43990;SDS011;29654;50.784;20.604;2023-11-22T12:51:59;7.50;;;5.88;;
43990;SDS011;29654;50.784;20.604;2023-11-22T12:57:02;5.80;;;4.93;;
43990;SDS011;29654;50.784;20.604;2023-11-22T13:02:08;5.13;;;4.63;;
43990;SDS011;29654;50.784;20.604;2023-11-22T13:07:11;4.70;;;4.07;;
43990;SDS011;29654;50.784;20.604;2023-11-22T13:12:14;4.57;;;4.18;;
43990;SDS011;29654;50.784;20.604;2023-11-22T13:17:21;4.50;;;3.65;;
43990;SDS011;29654;50.784;20.604;2023-11-22T13:22:23;4.50;;;3.97;;
43990;SDS011;29654;50.784;20.604;2023-11-22T13:27:27;14.20;;;10.15;;
43990;SDS011;29654;50.784;20.604;2023-11-22T13:32:32;5.53;;;4.90;;
43990;SDS011;29654;50.784;20.604;2023-11-22T13:37:35;8.23;;;5.95;;
43990;SDS011;29654;50.784;20.604;2023-11-22T13:42:38;10.93;;;9.20;;
43990;SDS011;29654;50.784;20.604;2023-11-22T13:47:45;6.43;;;5.40;;
43990;SDS011;29654;50.784;20.604;2023-11-22T13:52:49;6.05;;;4.30;;
43990;SDS011;29654;50.784;20.604;2023-11-22T13:57:53;4.93;;;3.97;;
43990;SDS011;29654;50.784;20.604;2023-11-22T14:02:59;4.03;;;3.63;;
43990;SDS011;29654;50.784;20.604;2023-11-22T14:08:06;7.10;;;4.60;;
43990;SDS011;29654;50.784;20.604;2023-11-22T14:13:09;5.07;;;4.38;;
43990;SDS011;29654;50.784;20.604;2023-11-22T14:18:13;5.32;;;3.95;;
43990;SDS011;29654;50.784;20.604;2023-11-22T14:23:17;5.13;;;3.72;;
43990;SDS011;29654;50.784;20.604;2023-11-22T14:28:20;4.05;;;3.63;;
43990;SDS011;29654;50.784;20.604;2023-11-22T14:33:25;4.65;;;3.80;;
43990;SDS011;29654;50.784;20.604;2023-11-22T14:38:32;5.82;;;4.35;;
43990;SDS011;29654;50.784;20.604;2023-11-22T14:43:34;5.25;;;4.35;;
43990;SDS011;29654;50.784;20.604;2023-11-22T14:48:39;5.32;;;4.78;;
43990;SDS011;29654;50.784;20.604;2023-11-22T14:53:41;7.07;;;5.05;;
43990;SDS011;29654;50.784;20.604;2023-11-22T14:58:44;7.75;;;6.05;;
43990;SDS011;29654;50.784;20.604;2023-11-22T15:03:55;5.20;;;3.95;;
43990;SDS011;29654;50.784;20.604;2023-11-22T15:08:58;4.15;;;3.72;;
43990;SDS011;29654;50.784;20.604;2023-11-22T15:14:00;5.88;;;4.15;;
43990;SDS011;29654;50.784;20.604;2023-11-22T15:19:04;6.18;;;4.28;;
43990;SDS011;29654;50.784;20.604;2023-11-22T15:24:07;5.60;;;5.05;;
43990;SDS011;29654;50.784;20.604;2023-11-22T15:29:10;5.15;;;4.50;;
43990;SDS011;29654;50.784;20.604;2023-11-22T15:34:17;4.68;;;3.78;;
43990;SDS011;29654;50.784;20.604;2023-11-22T15:39:22;5.57;;;4.85;;
43990;SDS011;29654;50.784;20.604;2023-11-22T15:44:25;17.02;;;13.52;;
43990;SDS011;29654;50.784;20.604;2023-11-22T15:49:30;14.15;;;11.77;;
43990;SDS011;29654;50.784;20.604;2023-11-22T15:54:32;12.80;;;11.13;;
43990;SDS011;29654;50.784;20.604;2023-11-22T15:59:35;13.45;;;10.82;;
43990;SDS011;29654;50.784;20.604;2023-11-22T16:04:40;15.95;;;12.43;;
43990;SDS011;29654;50.784;20.604;2023-11-22T16:09:42;16.73;;;11.98;;
43990;SDS011;29654;50.784;20.604;2023-11-22T16:14:48;10.18;;;8.32;;
43990;SDS011;29654;50.784;20.604;2023-11-22T16:19:54;7.95;;;6.28;;
43990;SDS011;29654;50.784;20.604;2023-11-22T16:25:00;8.20;;;6.43;;
43990;SDS011;29654;50.784;20.604;2023-11-22T16:30:04;10.80;;;6.95;;
43990;SDS011;29654;50.784;20.604;2023-11-22T16:35:10;8.98;;;6.05;;
43990;SDS011;29654;50.784;20.604;2023-11-22T16:40:13;7.75;;;6.15;;
43990;SDS011;29654;50.784;20.604;2023-11-22T16:45:15;10.70;;;7.50;;
43990;SDS011;29654;50.784;20.604;2023-11-22T16:50:19;10.93;;;8.15;;
43990;SDS011;29654;50.784;20.604;2023-11-22T16:55:22;10.27;;;7.82;;
43990;SDS011;29654;50.784;20.604;2023-11-22T17:00:24;10.95;;;8.38;;
43990;SDS011;29654;50.784;20.604;2023-11-22T17:05:28;12.35;;;8.18;;
43990;SDS011;29654;50.784;20.604;2023-11-22T17:10:31;12.77;;;9.55;;
43990;SDS011;29654;50.784;20.604;2023-11-22T17:15:35;13.63;;;10.55;;
43990;SDS011;29654;50.784;20.604;2023-11-22T17:20:39;16.60;;;11.90;;
43990;SDS011;29654;50.784;20.604;2023-11-22T17:25:43;17.23;;;10.80;;
43990;SDS011;29654;50.784;20.604;2023-11-22T17:30:45;14.07;;;10.00;;
43990;SDS011;29654;50.784;20.604;2023-11-22T17:35:51;21.25;;;12.75;;
43990;SDS011;29654;50.784;20.604;2023-11-22T17:40:54;26.77;;;15.93;;
43990;SDS011;29654;50.784;20.604;2023-11-22T17:45:56;39.70;;;22.00;;
43990;SDS011;29654;50.784;20.604;2023-11-22T17:51:01;50.10;;;28.58;;
43990;SDS011;29654;50.784;20.604;2023-11-22T17:56:04;49.87;;;25.70;;
43990;SDS011;29654;50.784;20.604;2023-11-22T18:01:09;47.17;;;25.03;;
43990;SDS011;29654;50.784;20.604;2023-11-22T18:06:13;41.58;;;23.90;;
43990;SDS011;29654;50.784;20.604;2023-11-22T18:11:19;36.40;;;20.27;;
43990;SDS011;29654;50.784;20.604;2023-11-22T18:16:22;38.70;;;20.73;;
43990;SDS011;29654;50.784;20.604;2023-11-22T18:21:27;39.77;;;21.87;;
43990;SDS011;29654;50.784;20.604;2023-11-22T18:26:29;35.87;;;21.27;;
43990;SDS011;29654;50.784;20.604;2023-11-22T18:31:32;41.30;;;23.47;;
43990;SDS011;29654;50.784;20.604;2023-11-22T18:36:36;43.37;;;24.03;;
43990;SDS011;29654;50.784;20.604;2023-11-22T18:41:38;37.90;;;22.75;;
43990;SDS011;29654;50.784;20.604;2023-11-22T18:46:41;37.63;;;22.33;;
43990;SDS011;29654;50.784;20.604;2023-11-22T18:51:45;38.27;;;21.70;;
43990;SDS011;29654;50.784;20.604;2023-11-22T18:56:48;30.30;;;17.93;;
43990;SDS011;29654;50.784;20.604;2023-11-22T19:01:51;27.60;;;17.07;;
43990;SDS011;29654;50.784;20.604;2023-11-22T19:06:55;24.38;;;17.42;;
43990;SDS011;29654;50.784;20.604;2023-11-22T19:11:57;28.47;;;17.27;;
43990;SDS011;29654;50.784;20.604;2023-11-22T19:17:00;23.57;;;16.63;;
43990;SDS011;29654;50.784;20.604;2023-11-22T19:22:07;26.90;;;18.13;;
43990;SDS011;29654;50.784;20.604;2023-11-22T19:27:10;28.13;;;19.40;;
43990;SDS011;29654;50.784;20.604;2023-11-22T19:32:12;25.60;;;18.53;;
43990;SDS011;29654;50.784;20.604;2023-11-22T19:37:19;23.83;;;17.50;;
43990;SDS011;29654;50.784;20.604;2023-11-22T19:42:24;29.03;;;20.20;;
43990;SDS011;29654;50.784;20.604;2023-11-22T19:47:28;30.50;;;20.37;;
43990;SDS011;29654;50.784;20.604;2023-11-22T19:52:32;34.90;;;20.95;;
43990;SDS011;29654;50.784;20.604;2023-11-22T19:57:35;29.70;;;20.43;;
43990;SDS011;29654;50.784;20.604;2023-11-22T20:02:38;39.27;;;21.33;;
43990;SDS011;29654;50.784;20.604;2023-11-22T20:07:44;48.23;;;26.60;;
43990;SDS011;29654;50.784;20.604;2023-11-22T20:12:47;67.50;;;33.87;;
43990;SDS011;29654;50.784;20.604;2023-11-22T20:17:49;37.13;;;20.47;;
43990;SDS011;29654;50.784;20.604;2023-11-22T20:22:53;30.57;;;18.97;;
43990;SDS011;29654;50.784;20.604;2023-11-22T20:27:56;36.30;;;20.50;;
43990;SDS011;29654;50.784;20.604;2023-11-22T20:32:59;42.03;;;23.10;;
43990;SDS011;29654;50.784;20.604;2023-11-22T20:38:03;37.83;;;21.30;;
43990;SDS011;29654;50.784;20.604;2023-11-22T20:43:05;27.10;;;18.45;;
43990;SDS011;29654;50.784;20.604;2023-11-22T20:48:08;35.63;;;20.90;;
43990;SDS011;29654;50.784;20.604;2023-11-22T20:53:12;29.70;;;18.20;;
43990;SDS011;29654;50.784;20.604;2023-11-22T20:58:15;33.93;;;19.50;;
43990;SDS011;29654;50.784;20.604;2023-11-22T21:03:18;58.13;;;31.17;;
43990;SDS011;29654;50.784;20.604;2023-11-22T21:08:22;78.18;;;43.83;;
43990;SDS011;29654;50.784;20.604;2023-11-22T21:13:25;96.50;;;53.80;;
43990;SDS011;29654;50.784;20.604;2023-11-22T21:18:29;100.57;;;53.28;;
43990;SDS011;29654;50.784;20.604;2023-11-22T21:23:33;109.23;;;57.57;;
43990;SDS011;29654;50.784;20.604;2023-11-22T21:28:36;99.53;;;53.40;;
43990;SDS011;29654;50.784;20.604;2023-11-22T21:33:40;99.53;;;53.60;;
43990;SDS011;29654;50.784;20.604;2023-11-22T21:38:44;100.95;;;52.85;;
43990;SDS011;29654;50.784;20.604;2023-11-22T21:43:46;90.33;;;49.30;;
43990;SDS011;29654;50.784;20.604;2023-11-22T21:48:52;92.72;;;48.65;;
43990;SDS011;29654;50.784;20.604;2023-11-22T21:53:56;100.90;;;53.63;;
43990;SDS011;29654;50.784;20.604;2023-11-22T21:58:58;101.90;;;52.83;;
43990;SDS011;29654;50.784;20.604;2023-11-22T22:04:01;89.38;;;50.92;;
43990;SDS011;29654;50.784;20.604;2023-11-22T22:09:08;91.95;;;48.15;;
43990;SDS011;29654;50.784;20.604;2023-11-22T22:14:12;85.60;;;49.33;;
43990;SDS011;29654;50.784;20.604;2023-11-22T22:19:15;92.63;;;49.30;;
43990;SDS011;29654;50.784;20.604;2023-11-22T22:24:19;81.57;;;44.42;;
43990;SDS011;29654;50.784;20.604;2023-11-22T22:29:22;83.05;;;43.22;;
43990;SDS011;29654;50.784;20.604;2023-11-22T22:34:25;81.15;;;44.95;;
43990;SDS011;29654;50.784;20.604;2023-11-22T22:39:29;85.90;;;47.50;;
43990;SDS011;29654;50.784;20.604;2023-11-22T22:44:31;76.82;;;41.13;;
43990;SDS011;29654;50.784;20.604;2023-11-22T22:49:35;70.78;;;39.08;;
43990;SDS011;29654;50.784;20.604;2023-11-22T22:54:40;65.15;;;36.35;;
43990;SDS011;29654;50.784;20.604;2023-11-22T22:59:42;71.10;;;38.47;;
43990;SDS011;29654;50.784;20.604;2023-11-22T23:04:45;64.10;;;37.45;;
43990;SDS011;29654;50.784;20.604;2023-11-22T23:09:49;62.88;;;36.67;;
43990;SDS011;29654;50.784;20.604;2023-11-22T23:14:51;73.13;;;39.43;;
43990;SDS011;29654;50.784;20.604;2023-11-22T23:19:54;59.67;;;35.22;;
43990;SDS011;29654;50.784;20.604;2023-11-22T23:24:58;60.60;;;35.63;;
43990;SDS011;29654;50.784;20.604;2023-11-22T23:30:01;60.10;;;34.78;;
43990;SDS011;29654;50.784;20.604;2023-11-22T23:35:06;58.42;;;34.22;;
43990;SDS011;29654;50.784;20.604;2023-11-22T23:40:13;53.53;;;30.73;;
43990;SDS011;29654;50.784;20.604;2023-11-22T23:45:22;46.08;;;26.15;;
43990;SDS011;29654;50.784;20.604;2023-11-22T23:50:25;37.78;;;22.05;;
43990;SDS011;29654;50.784;20.604;2023-11-22T23:55:29;26.15;;;16.55;;
